Time;durP1;ratioP1;P1;durP2;ratioP2;P2;SDS_P1;SDS_P2;PMS_P1;PMS_P2;Temp;Humidity;BMP_temperature;BMP_pressure;BME280_temperature;BME280_humidity;BME280_pressure;Samples;Min_cycle;Max_cycle;Signal;HPM_P1;HPM_P2
2022/04/15 00:01:21;;;;;;;1.58;1.48;;;17.80;56.40;;;;;;5134827;27;20659;-72
2022/04/15 00:03:46;;;;;;;1.45;1.35;;;17.80;56.40;;;;;;5135389;27;20176;-71
2022/04/15 00:06:12;;;;;;;2.08;1.10;;;17.70;57.00;;;;;;5135517;27;20263;-72
2022/04/15 00:08:37;;;;;;;1.50;1.40;;;17.80;56.40;;;;;;5134795;27;20180;-71
2022/04/15 00:11:03;;;;;;;2.22;1.30;;;17.80;56.40;;;;;;5135794;27;20181;-72
2022/04/15 00:13:31;;;;;;;1.27;1.17;;;17.80;56.40;;;;;;5135391;27;20680;-72
2022/04/15 00:15:57;;;;;;;1.85;1.35;;;17.70;56.40;;;;;;5134340;27;20652;-72
2022/04/15 00:18:23;;;;;;;1.85;1.30;;;17.70;56.40;;;;;;5135515;27;20181;-72
2022/04/15 00:20:52;;;;;;;1.60;1.50;;;17.70;56.40;;;;;;5135098;27;20169;-71
2022/04/15 00:23:24;;;;;;;1.40;1.30;;;17.70;56.40;;;;;;5134757;27;20184;-73
2022/04/15 00:25:50;;;;;;;1.40;1.30;;;17.70;56.40;;;;;;5135199;27;20275;-72
2022/04/15 00:28:15;;;;;;;1.17;1.10;;;17.70;56.40;;;;;;5135516;27;20676;-73
2022/04/15 00:30:41;;;;;;;1.90;1.38;;;17.70;56.40;;;;;;5134577;27;20181;-71
2022/04/15 00:33:06;;;;;;;1.67;1.38;;;17.70;56.40;;;;;;5135241;27;20212;-72
2022/04/15 00:35:32;;;;;;;1.98;1.45;;;17.70;56.40;;;;;;5135015;27;20172;-72
2022/04/15 00:37:57;;;;;;;1.60;1.35;;;17.70;56.40;;;;;;5134268;27;20172;-72
2022/04/15 00:40:23;;;;;;;1.75;1.42;;;17.70;56.40;;;;;;5135007;27;20208;-72
2022/04/15 00:42:48;;;;;;;2.22;1.52;;;17.70;56.40;;;;;;5134104;27;20176;-72
2022/04/15 00:45:14;;;;;;;1.30;1.20;;;17.70;56.40;;;;;;5134781;27;20168;-72
2022/04/15 00:47:55;;;;;;;1.23;1.13;;;17.60;56.30;;;;;;5135139;27;20223;-72
2022/04/15 00:50:24;;;;;;;1.13;1.10;;;17.60;56.30;;;;;;5134135;27;20208;-71
2022/04/15 00:52:54;;;;;;;1.92;1.40;;;17.60;56.30;;;;;;5134592;27;20212;-72
2022/04/15 00:55:21;;;;;;;1.40;1.30;;;17.60;56.30;;;;;;5134861;27;20184;-72
2022/04/15 00:57:57;;;;;;;1.98;1.50;;;17.60;56.30;;;;;;5133837;27;20181;-73
2022/04/15 01:00:23;;;;;;;1.40;1.30;;;17.60;56.30;;;;;;5134695;27;20576;-72
2022/04/15 01:02:48;;;;;;;1.67;1.58;;;17.60;56.30;;;;;;5134005;27;20733;-73
2022/04/15 01:05:14;;;;;;;1.80;1.40;;;17.60;56.30;;;;;;5133880;27;20176;-72
2022/04/15 01:07:42;;;;;;;2.05;1.40;;;17.60;56.30;;;;;;5134183;27;20501;-72
2022/04/15 01:10:09;;;;;;;1.45;1.20;;;17.60;56.30;;;;;;5134509;27;20183;-71
2022/04/15 01:12:37;;;;;;;1.33;1.15;;;17.60;56.30;;;;;;5133336;27;20686;-72
2022/04/15 01:15:05;;;;;;;1.88;1.70;;;17.60;56.30;;;;;;5134354;27;20252;-72
2022/04/15 01:17:33;;;;;;;1.50;1.40;;;17.60;56.20;;;;;;5134541;27;20180;-72
2022/04/15 01:19:59;;;;;;;1.30;1.20;;;17.50;56.20;;;;;;5115313;27;20555;-72
2022/04/15 01:22:29;;;;;;;1.50;1.10;;;17.60;56.20;;;;;;5134253;27;20196;-72
2022/04/15 01:24:54;;;;;;;1.65;1.52;;;17.60;56.20;;;;;;5099481;27;20686;-72
2022/04/15 01:27:33;;;;;;;1.48;1.38;;;17.60;56.20;;;;;;5133580;27;20260;-72
2022/04/15 01:29:59;;;;;;;2.53;1.55;;;17.50;56.20;;;;;;5133774;27;20221;-73
2022/04/15 01:32:24;;;;;;;2.03;1.35;;;17.60;56.20;;;;;;5133374;27;20247;-73
2022/04/15 01:34:50;;;;;;;1.48;1.38;;;17.60;56.20;;;;;;5133723;27;20255;-72
2022/04/15 01:37:16;;;;;;;1.42;1.33;;;17.50;56.20;;;;;;5133977;27;20198;-73
2022/04/15 01:39:41;;;;;;;1.45;1.35;;;17.50;56.20;;;;;;5133109;27;20180;-72
2022/04/15 01:42:11;;;;;;;1.30;1.20;;;17.50;56.20;;;;;;5133826;27;20179;-73
2022/04/15 01:44:37;;;;;;;1.60;1.50;;;17.50;56.20;;;;;;5115041;27;20224;-73
2022/04/15 01:47:03;;;;;;;1.33;1.23;;;17.50;56.20;;;;;;5097895;27;20220;-72
2022/04/15 01:49:28;;;;;;;1.50;1.40;;;17.50;56.20;;;;;;5133775;27;20208;-72
2022/04/15 01:51:54;;;;;;;1.88;1.77;;;17.50;56.20;;;;;;5133205;27;20557;-71
2022/04/15 01:54:19;;;;;;;1.77;1.60;;;17.50;56.10;;;;;;5132849;27;20526;-72
2022/04/15 01:56:45;;;;;;;1.88;1.50;;;17.50;56.20;;;;;;5132403;27;20219;-72
2022/04/15 01:59:10;;;;;;;1.67;1.58;;;17.50;56.20;;;;;;5133489;27;20179;-73
2022/04/15 02:01:36;;;;;;;1.65;1.55;;;17.50;56.20;;;;;;5132551;27;20572;-73
2022/04/15 02:04:02;;;;;;;1.33;1.23;;;17.50;56.20;;;;;;5133481;27;20286;-72
2022/04/15 02:06:27;;;;;;;1.58;1.48;;;17.50;56.20;;;;;;5133509;27;20670;-72
2022/04/15 02:08:53;;;;;;;1.90;1.77;;;17.50;56.20;;;;;;5132519;27;20683;-71
2022/04/15 02:11:18;;;;;;;1.70;1.60;;;17.50;56.20;;;;;;5133303;27;20552;-72
2022/04/15 02:13:44;;;;;;;1.52;1.42;;;17.50;56.20;;;;;;5114391;27;20215;-72
2022/04/15 02:16:10;;;;;;;1.73;1.60;;;17.50;56.10;;;;;;5132470;27;20228;-72
2022/04/15 02:18:36;;;;;;;1.60;1.50;;;17.50;56.10;;;;;;5132933;27;20641;-72
2022/04/15 02:21:01;;;;;;;2.10;1.70;;;17.50;56.10;;;;;;5133234;27;20268;-73
2022/04/15 02:23:27;;;;;;;1.67;1.58;;;17.40;56.10;;;;;;5132398;27;20176;-72
2022/04/15 02:25:55;;;;;;;1.60;1.50;;;17.50;56.10;;;;;;5132786;27;20296;-72
2022/04/15 02:28:21;;;;;;;1.73;1.63;;;17.50;56.10;;;;;;5132401;27;20267;-72
2022/04/15 02:30:47;;;;;;;1.55;1.45;;;17.50;56.10;;;;;;5132694;27;20483;-72
2022/04/15 02:33:16;;;;;;;1.70;1.60;;;17.40;56.10;;;;;;5133084;27;20212;-72
2022/04/15 02:35:42;;;;;;;1.42;1.33;;;17.50;56.10;;;;;;5132027;27;20204;-72
2022/04/15 02:38:07;;;;;;;1.60;1.50;;;17.40;56.10;;;;;;5132985;27;20659;-73
2022/04/15 02:40:33;;;;;;;2.45;1.58;;;17.40;56.10;;;;;;5132838;27;20329;-72
2022/04/15 02:43:00;;;;;;;2.25;1.40;;;17.40;56.10;;;;;;5131844;27;20181;-72
2022/04/15 02:45:25;;;;;;;2.08;1.63;;;17.40;56.10;;;;;;5097853;27;20172;-72
2022/04/15 02:47:50;;;;;;;1.75;1.58;;;17.40;56.10;;;;;;5114276;27;20183;-72
2022/04/15 02:50:16;;;;;;;1.58;1.48;;;17.40;56.10;;;;;;5132105;27;20168;-72
2022/04/15 02:52:41;;;;;;;1.50;1.40;;;17.40;56.10;;;;;;5114024;28;20629;-72
2022/04/15 02:55:07;;;;;;;1.50;1.40;;;17.40;56.10;;;;;;5132595;27;20184;-72
2022/04/15 02:57:33;;;;;;;1.40;1.30;;;17.40;56.10;;;;;;5113801;27;20607;-73
2022/04/15 02:59:58;;;;;;;1.40;1.30;;;17.40;56.10;;;;;;5132505;27;20203;-72
2022/04/15 03:02:27;;;;;;;1.63;1.52;;;17.40;56.10;;;;;;5132322;28;20227;-73
2022/04/15 03:04:53;;;;;;;1.73;1.63;;;17.40;56.10;;;;;;5131541;28;20598;-72
2022/04/15 03:07:18;;;;;;;1.50;1.40;;;17.40;56.10;;;;;;5134749;27;20173;-72
2022/04/15 03:09:44;;;;;;;1.67;1.58;;;17.40;56.10;;;;;;5136496;27;20172;-71
2022/04/15 03:12:10;;;;;;;1.60;1.48;;;17.40;56.10;;;;;;5136324;27;20175;-72
2022/04/15 03:14:36;;;;;;;1.67;1.42;;;17.40;56.10;;;;;;5136666;27;20222;-71
2022/04/15 03:17:01;;;;;;;1.50;1.40;;;17.40;56.10;;;;;;5136692;27;20542;-72
2022/04/15 03:19:27;;;;;;;2.00;1.80;;;17.40;56.10;;;;;;5135979;27;20183;-72
2022/04/15 03:21:52;;;;;;;1.50;1.40;;;17.40;56.10;;;;;;5136304;27;20340;-72
2022/04/15 03:24:18;;;;;;;1.50;1.40;;;17.40;56.10;;;;;;5136470;27;20623;-72
2022/04/15 03:26:43;;;;;;;1.98;1.55;;;17.40;56.10;;;;;;5135846;27;20694;-72
2022/04/15 03:29:09;;;;;;;1.50;1.40;;;17.30;56.10;;;;;;5136559;27;20177;-72
2022/04/15 03:31:34;;;;;;;1.40;1.30;;;17.30;56.00;;;;;;5135736;27;20168;-72
2022/04/15 03:34:00;;;;;;;1.42;1.33;;;17.40;56.10;;;;;;5136332;27;20208;-72
2022/04/15 03:36:25;;;;;;;1.60;1.50;;;17.30;56.10;;;;;;5136338;27;20161;-72
2022/04/15 03:38:51;;;;;;;1.50;1.40;;;17.30;56.10;;;;;;5135565;27;20306;-72
2022/04/15 03:41:16;;;;;;;1.80;1.42;;;17.30;56.10;;;;;;5136394;27;20176;-72
2022/04/15 03:43:42;;;;;;;1.60;1.50;;;17.30;56.10;;;;;;5135973;27;20331;-71
2022/04/15 03:46:07;;;;;;;2.60;1.98;;;17.30;56.10;;;;;;5135804;27;20169;-72
2022/04/15 03:48:33;;;;;;;1.52;1.42;;;17.30;56.10;;;;;;5136009;27;20200;-72
2022/04/15 03:50:58;;;;;;;1.70;1.60;;;17.30;56.10;;;;;;5135817;27;20173;-72
2022/04/15 03:53:24;;;;;;;1.40;1.40;;;17.30;56.00;;;;;;5135313;27;20192;-72
2022/04/15 03:55:51;;;;;;;1.70;1.60;;;17.30;56.10;;;;;;5135939;27;20719;-73
2022/04/15 03:58:16;;;;;;;1.20;1.10;;;17.30;56.10;;;;;;5136096;27;20173;-74
2022/04/15 04:00:43;;;;;;;1.58;1.48;;;17.30;56.00;;;;;;5135755;27;20495;-73
2022/04/15 04:03:08;;;;;;;1.63;1.52;;;17.30;56.10;;;;;;5135639;27;20225;-74
2022/04/15 04:05:34;;;;;;;2.33;1.63;;;17.30;56.10;;;;;;5135798;27;20184;-72
2022/04/15 04:07:59;;;;;;;1.60;1.38;;;17.30;56.70;;;;;;5135059;27;20169;-73
2022/04/15 04:10:25;;;;;;;1.30;1.20;;;17.30;56.10;;;;;;5135906;27;20173;-72
2022/04/15 04:12:51;;;;;;;1.45;1.35;;;17.20;56.00;;;;;;5135464;27;20208;-72
2022/04/15 04:15:17;;;;;;;1.50;1.40;;;17.30;56.10;;;;;;5135180;27;20176;-74
2022/04/15 04:17:42;;;;;;;1.42;1.33;;;17.30;56.10;;;;;;5135670;27;20172;-73
2022/04/15 04:20:09;;;;;;;1.83;1.60;;;17.30;56.10;;;;;;5134798;27;20627;-74
2022/04/15 04:22:35;;;;;;;1.55;1.27;;;17.20;56.00;;;;;;5134441;27;20263;-74
2022/04/15 04:25:01;;;;;;;1.60;1.50;;;17.20;56.00;;;;;;5135695;27;20260;-74
2022/04/15 04:27:27;;;;;;;1.40;1.30;;;17.20;56.00;;;;;;5135557;27;20177;-74
2022/04/15 04:29:52;;;;;;;1.73;1.63;;;17.20;56.00;;;;;;5134404;27;20169;-74
2022/04/15 04:32:18;;;;;;;1.55;1.30;;;17.20;56.00;;;;;;5135331;27;20207;-72
2022/04/15 04:34:44;;;;;;;1.50;1.40;;;17.20;56.00;;;;;;5134886;27;20258;-73
2022/04/15 04:37:09;;;;;;;1.60;1.33;;;17.20;56.00;;;;;;5134478;27;20363;-72
2022/04/15 04:39:35;;;;;;;1.50;1.40;;;17.20;56.00;;;;;;5134947;27;20263;-72
2022/04/15 04:42:02;;;;;;;1.55;1.45;;;17.20;56.00;;;;;;5134270;27;20168;-73
2022/04/15 04:44:28;;;;;;;1.60;1.40;;;17.20;56.00;;;;;;5116842;27;20496;-72
2022/04/15 04:46:54;;;;;;;1.50;1.40;;;17.20;56.00;;;;;;5134581;27;20180;-72
2022/04/15 04:49:19;;;;;;;1.50;1.42;;;17.20;56.00;;;;;;5134126;27;20176;-73
2022/04/15 04:51:45;;;;;;;1.50;1.40;;;17.20;56.00;;;;;;5134490;27;20179;-72
2022/04/15 04:54:11;;;;;;;1.90;1.60;;;17.20;56.00;;;;;;5134704;27;20208;-73
2022/04/15 04:56:36;;;;;;;1.52;1.40;;;17.10;56.00;;;;;;5134006;27;20171;-73
2022/04/15 04:59:02;;;;;;;1.90;1.65;;;17.20;56.00;;;;;;5134628;27;20176;-74
2022/04/15 05:01:27;;;;;;;1.48;1.38;;;17.20;56.00;;;;;;5134385;27;20575;-72
2022/04/15 05:03:52;;;;;;;1.45;1.35;;;17.20;56.00;;;;;;5133784;27;20196;-74
2022/04/15 05:06:18;;;;;;;2.03;1.70;;;17.20;56.00;;;;;;5134485;27;20275;-73
2022/04/15 05:08:44;;;;;;;1.40;1.30;;;17.20;56.00;;;;;;5134398;27;20200;-72
2022/04/15 05:11:10;;;;;;;2.05;1.40;;;17.20;56.00;;;;;;5133738;27;20168;-73
2022/04/15 05:13:35;;;;;;;1.65;1.30;;;17.20;55.90;;;;;;5133921;27;20204;-72
2022/04/15 05:16:01;;;;;;;1.33;1.23;;;17.20;56.00;;;;;;5134553;27;20221;-74
2022/04/15 05:18:29;;;;;;;1.60;1.50;;;17.10;56.00;;;;;;5133462;27;20221;-73
2022/04/15 05:20:55;;;;;;;1.50;1.25;;;17.10;55.90;;;;;;5133849;27;20169;-72
2022/04/15 05:23:20;;;;;;;1.52;1.30;;;17.20;56.00;;;;;;5134196;27;20165;-72
2022/04/15 05:25:46;;;;;;;1.65;1.55;;;17.20;56.50;;;;;;5133373;27;20276;-72
2022/04/15 05:28:11;;;;;;;1.88;1.42;;;17.20;55.90;;;;;;5133946;27;20237;-74
2022/04/15 05:30:37;;;;;;;1.35;1.25;;;17.20;55.90;;;;;;5133675;27;20551;-73
2022/04/15 05:33:03;;;;;;;1.70;1.60;;;17.10;55.80;;;;;;5133112;27;20204;-72
2022/04/15 05:35:28;;;;;;;1.55;1.45;;;17.10;55.80;;;;;;5133736;27;20219;-72
2022/04/15 05:37:54;;;;;;;1.50;1.40;;;17.10;55.80;;;;;;5133743;27;20191;-72
2022/04/15 05:40:19;;;;;;;1.60;1.50;;;17.10;55.80;;;;;;5133347;27;20176;-73
2022/04/15 05:42:45;;;;;;;1.42;1.33;;;17.20;55.80;;;;;;5133665;27;20207;-73
2022/04/15 05:45:10;;;;;;;1.73;1.63;;;17.20;55.80;;;;;;5133908;27;20175;-73
2022/04/15 05:47:37;;;;;;;1.60;1.50;;;17.20;55.80;;;;;;5133039;27;20196;-72
2022/04/15 05:50:02;;;;;;;1.40;1.30;;;17.20;55.80;;;;;;5133536;27;20176;-73
2022/04/15 05:52:28;;;;;;;1.40;1.30;;;17.20;55.80;;;;;;5132953;27;20303;-73
2022/04/15 05:54:53;;;;;;;1.08;1.08;;;17.20;55.80;;;;;;5133460;27;20808;-72
2022/04/15 05:57:19;;;;;;;1.45;1.30;;;17.20;55.80;;;;;;5133692;27;20252;-74
2022/04/15 05:59:45;;;;;;;1.58;1.48;;;17.20;55.70;;;;;;5132572;27;20180;-73
2022/04/15 06:02:10;;;;;;;1.20;1.20;;;17.20;55.70;;;;;;5133241;27;20232;-73
2022/04/15 06:04:36;;;;;;;1.23;1.17;;;17.20;55.70;;;;;;5132996;27;20214;-72
2022/04/15 06:07:04;;;;;;;1.58;1.33;;;17.20;55.70;;;;;;5132711;27;20324;-72
2022/04/15 06:09:29;;;;;;;1.75;1.65;;;17.20;55.70;;;;;;5133404;27;20181;-72
2022/04/15 06:11:56;;;;;;;1.50;1.38;;;17.20;55.70;;;;;;5133211;27;20187;-72
2022/04/15 06:14:22;;;;;;;1.20;1.17;;;17.20;55.60;;;;;;5132586;27;20211;-72
2022/04/15 06:16:47;;;;;;;1.02;1.02;;;17.20;55.50;;;;;;5132925;27;20256;-73
2022/04/15 06:19:14;;;;;;;1.20;1.13;;;17.20;55.50;;;;;;5133093;27;20309;-74
2022/04/15 06:21:39;;;;;;;1.02;1.02;;;17.30;55.60;;;;;;5132286;27;20172;-72
2022/04/15 06:24:08;;;;;;;1.25;1.15;;;17.20;55.50;;;;;;5133050;27;20613;-72
2022/04/15 06:26:34;;;;;;;1.17;1.17;;;17.30;55.50;;;;;;5133161;27;20188;-72
2022/04/15 06:29:00;;;;;;;1.48;1.23;;;17.30;55.60;;;;;;5132562;27;20172;-74
2022/04/15 06:31:25;;;;;;;1.35;1.25;;;17.30;55.50;;;;;;5132969;27;20294;-72
2022/04/15 06:33:52;;;;;;;3.65;1.50;;;17.30;55.60;;;;;;5132662;27;20285;-75
2022/04/15 06:36:18;;;;;;;2.15;1.40;;;17.30;55.60;;;;;;5132470;27;20172;-74
2022/04/15 06:38:43;;;;;;;1.45;1.35;;;17.40;55.60;;;;;;5132678;27;20180;-75
2022/04/15 06:41:09;;;;;;;1.80;1.30;;;17.40;55.50;;;;;;5132574;27;20592;-74
2022/04/15 06:43:34;;;;;;;1.42;1.33;;;17.40;55.50;;;;;;5131646;27;20593;-74
2022/04/15 06:46:02;;;;;;;2.05;1.50;;;17.40;55.40;;;;;;5132820;27;20229;-71
2022/04/15 06:48:27;;;;;;;1.65;1.35;;;17.40;55.40;;;;;;5132654;27;20183;-72
2022/04/15 06:50:54;;;;;;;1.20;1.13;;;17.40;55.30;;;;;;5131827;27;20580;-72
2022/04/15 06:53:23;;;;;;;1.45;1.35;;;17.50;55.20;;;;;;5132921;27;20212;-72
2022/04/15 06:55:51;;;;;;;1.67;1.20;;;17.50;55.20;;;;;;5131969;27;20176;-71
2022/04/15 06:58:17;;;;;;;1.52;1.30;;;17.50;55.20;;;;;;5132822;27;20176;-72
2022/04/15 07:00:42;;;;;;;1.38;1.23;;;17.60;55.20;;;;;;5132226;27;20233;-72
2022/04/15 07:03:09;;;;;;;2.05;1.38;;;17.60;55.20;;;;;;5131868;27;20566;-72
2022/04/15 07:05:34;;;;;;;3.15;1.30;;;17.60;55.20;;;;;;5132765;28;20181;-72
2022/04/15 07:08:00;;;;;;;2.30;1.27;;;17.60;55.20;;;;;;5132783;28;20687;-72
2022/04/15 07:10:25;;;;;;;1.30;1.15;;;17.60;55.30;;;;;;5132112;28;20654;-72
2022/04/15 07:12:51;;;;;;;1.92;1.25;;;17.60;55.50;;;;;;5132163;28;20280;-74
2022/04/15 07:15:17;;;;;;;1.33;1.15;;;17.60;55.60;;;;;;5114270;28;20618;-73
2022/04/15 07:17:42;;;;;;;2.33;1.30;;;17.60;55.60;;;;;;5131411;28;20229;-74
2022/04/15 07:20:08;;;;;;;1.40;1.05;;;17.60;55.70;;;;;;5132487;28;20538;-75
2022/04/15 07:22:33;;;;;;;1.20;1.10;;;17.60;55.70;;;;;;5132540;28;20188;-74
2022/04/15 07:24:59;;;;;;;1.13;1.10;;;17.60;55.80;;;;;;5131324;28;20540;-75
2022/04/15 07:27:24;;;;;;;2.80;1.23;;;17.60;55.80;;;;;;5132611;28;20177;-74
2022/04/15 07:29:50;;;;;;;1.67;1.20;;;17.60;55.80;;;;;;5132188;28;20180;-71
2022/04/15 07:32:21;;;;;;;1.20;0.93;;;17.60;55.90;;;;;;5131518;28;20179;-72
2022/04/15 07:34:46;;;;;;;2.22;1.25;;;17.60;55.80;;;;;;5132372;28;20207;-73
2022/04/15 07:37:12;;;;;;;2.47;1.23;;;17.50;55.80;;;;;;5132454;28;20177;-72
2022/04/15 07:39:38;;;;;;;2.13;1.50;;;17.50;55.80;;;;;;5131410;28;20168;-69
2022/04/15 07:42:04;;;;;;;1.27;1.02;;;17.50;55.70;;;;;;5132241;28;20246;-73
2022/04/15 07:44:30;;;;;;;2.20;1.40;;;17.50;55.80;;;;;;5132227;28;20260;-70
2022/04/15 07:46:55;;;;;;;1.67;0.85;;;17.50;55.80;;;;;;5131400;28;20176;-72
2022/04/15 07:49:21;;;;;;;0.95;0.95;;;17.50;55.80;;;;;;5132318;28;20650;-70
2022/04/15 07:51:46;;;;;;;2.33;1.10;;;17.50;56.00;;;;;;5131845;28;20176;-69
2022/04/15 07:54:12;;;;;;;1.30;1.20;;;17.50;55.90;;;;;;5133316;27;20345;-72
2022/04/15 07:56:37;;;;;;;1.30;1.20;;;17.50;55.80;;;;;;5135629;27;20165;-71
2022/04/15 07:59:03;;;;;;;1.95;1.10;;;17.50;55.80;;;;;;5135059;27;20173;-73
2022/04/15 08:01:28;;;;;;;3.05;1.50;;;17.50;55.80;;;;;;5135530;27;20164;-72
2022/04/15 08:03:55;;;;;;;4.97;1.33;;;17.50;55.80;;;;;;5135652;27;20321;-72
2022/04/15 08:06:20;;;;;;;2.22;1.23;;;17.50;55.80;;;;;;5135257;27;20208;-74
2022/04/15 08:08:46;;;;;;;2.47;1.15;;;17.50;55.80;;;;;;5135379;27;20212;-76
2022/04/15 08:11:11;;;;;;;1.42;1.00;;;17.50;56.00;;;;;;5135715;27;20184;-74
2022/04/15 08:13:37;;;;;;;2.30;1.20;;;17.40;55.70;;;;;;5134637;27;20261;-77
2022/04/15 08:16:03;;;;;;;2.13;1.30;;;17.50;55.70;;;;;;5135646;27;20256;-77
2022/04/15 08:18:29;;;;;;;1.80;1.38;;;17.40;55.60;;;;;;5135832;27;20176;-75
2022/04/15 08:20:56;;;;;;;3.45;1.52;;;17.40;55.60;;;;;;5134516;27;20177;-76
2022/04/15 08:23:22;;;;;;;2.33;1.60;;;17.40;55.50;;;;;;5135596;27;20251;-77
2022/04/15 08:25:47;;;;;;;2.05;1.55;;;17.30;55.40;;;;;;5135314;27;20267;-77
2022/04/15 08:28:12;;;;;;;2.55;1.38;;;17.30;55.40;;;;;;5134594;27;20169;-75
2022/04/15 08:30:38;;;;;;;1.85;1.25;;;17.40;55.30;;;;;;5134690;27;20176;-70
2022/04/15 08:33:08;;;;;;;2.75;1.17;;;17.40;55.50;;;;;;5134739;27;20642;-73
2022/04/15 08:35:34;;;;;;;2.85;1.40;;;17.40;55.50;;;;;;5131718;27;20518;-72
2022/04/15 08:38:02;;;;;;;1.92;1.05;;;17.40;55.50;;;;;;5134735;27;20169;-73
2022/04/15 08:40:31;;;;;;;1.55;1.27;;;17.40;55.40;;;;;;5133809;27;20200;-73
2022/04/15 08:42:57;;;;;;;2.35;1.20;;;17.50;55.50;;;;;;5133576;27;20267;-73
2022/04/15 08:45:22;;;;;;;3.42;1.20;;;17.50;55.60;;;;;;5135060;27;20267;-75
2022/04/15 08:47:48;;;;;;;4.75;1.35;;;17.50;55.50;;;;;;5099431;27;20536;-72
2022/04/15 08:50:14;;;;;;;1.27;1.17;;;17.50;55.50;;;;;;5134125;27;20203;-75
2022/04/15 08:52:40;;;;;;;2.67;1.17;;;17.50;55.50;;;;;;5134661;27;20211;-72
2022/04/15 08:55:06;;;;;;;2.45;1.20;;;17.50;55.60;;;;;;5134280;27;20164;-74
2022/04/15 08:57:32;;;;;;;3.22;1.58;;;17.50;55.70;;;;;;5134509;27;20211;-76
2022/04/15 08:59:57;;;;;;;2.53;1.10;;;17.50;55.60;;;;;;5134217;27;20202;-74
2022/04/15 09:02:33;;;;;;;2.58;1.15;;;17.50;55.60;;;;;;5133351;27;20280;-73
2022/04/15 09:05:02;;;;;;;3.58;1.25;;;17.50;55.70;;;;;;5133904;27;20735;-70
2022/04/15 09:07:29;;;;;;;1.20;1.10;;;17.50;55.80;;;;;;5134501;27;20626;-70
2022/04/15 09:09:58;;;;;;;1.33;0.93;;;17.50;55.70;;;;;;5134405;27;20180;-74
2022/04/15 09:12:26;;;;;;;4.97;1.70;;;17.50;55.70;;;;;;5135353;27;20541;-70
2022/04/15 09:14:53;;;;;;;6.47;1.70;;;17.50;55.80;;;;;;5134082;27;20180;-71
2022/04/15 09:17:23;;;;;;;4.00;1.33;;;17.50;56.00;;;;;;5115267;27;20229;-72
2022/04/15 09:19:48;;;;;;;2.78;1.20;;;17.50;55.80;;;;;;5134087;27;20233;-72
2022/04/15 09:22:17;;;;;;;3.53;1.30;;;17.50;56.00;;;;;;5133910;27;20232;-73
2022/04/15 09:24:43;;;;;;;2.78;1.50;;;17.50;56.00;;;;;;5133268;27;20238;-72
2022/04/15 09:27:15;;;;;;;2.47;1.17;;;17.50;56.00;;;;;;5134322;27;20169;-72
2022/04/15 09:29:40;;;;;;;5.50;1.60;;;17.50;56.10;;;;;;5133915;27;20180;-74
2022/04/15 09:32:11;;;;;;;1.23;1.10;;;17.50;56.10;;;;;;5133724;27;20267;-69
2022/04/15 09:35:02;;;;;;;1.80;1.33;;;17.60;56.10;;;;;;5115123;27;20653;-72
2022/04/15 09:37:30;;;;;;;2.08;1.42;;;17.50;56.10;;;;;;5133329;27;20642;-73
2022/04/15 09:40:09;;;;;;;3.47;1.52;;;17.50;56.20;;;;;;5133745;27;20536;-73
2022/04/15 09:42:35;;;;;;;4.88;1.55;;;17.50;56.20;;;;;;5134167;27;20252;-73
2022/04/15 09:45:12;;;;;;;3.25;1.40;;;17.50;56.10;;;;;;5133265;27;20165;-74
2022/04/15 09:47:37;;;;;;;3.80;1.48;;;17.50;56.10;;;;;;5133301;27;20537;-72
2022/04/15 09:50:03;;;;;;;1.40;1.20;;;17.50;56.10;;;;;;5133698;27;20631;-76
2022/04/15 09:52:29;;;;;;;2.47;1.30;;;17.50;56.20;;;;;;5132964;27;20185;-72
2022/04/15 09:54:55;;;;;;;1.90;1.30;;;17.50;56.20;;;;;;5114971;27;20173;-72
2022/04/15 09:57:33;;;;;;;2.05;1.17;;;17.50;56.10;;;;;;5098700;27;20522;-72
2022/04/15 10:00:00;;;;;;;4.13;1.63;;;17.50;56.10;;;;;;5098171;27;20233;-73
2022/04/15 10:02:26;;;;;;;3.13;1.23;;;17.50;56.30;;;;;;5115289;27;20216;-73
2022/04/15 10:04:51;;;;;;;2.95;1.30;;;17.50;56.30;;;;;;5115044;27;20186;-71
2022/04/15 10:07:17;;;;;;;3.10;1.40;;;17.50;56.20;;;;;;5132780;27;20176;-72
2022/04/15 10:09:42;;;;;;;1.42;1.20;;;17.50;56.20;;;;;;5114548;27;20198;-72
2022/04/15 10:12:08;;;;;;;1.58;1.42;;;17.50;56.20;;;;;;5114652;27;20534;-73
2022/04/15 10:14:33;;;;;;;1.55;1.10;;;17.50;56.30;;;;;;5132122;27;20204;-72
2022/04/15 10:16:59;;;;;;;2.85;1.60;;;17.50;56.20;;;;;;5132772;27;20227;-73
2022/04/15 10:19:25;;;;;;;3.42;1.25;;;17.60;56.30;;;;;;5114791;27;20178;-71
2022/04/15 10:21:50;;;;;;;1.23;1.05;;;17.50;56.30;;;;;;5134334;27;20168;-70
2022/04/15 10:24:16;;;;;;;3.75;1.30;;;17.50;56.20;;;;;;5128434;27;20630;-71
2022/04/15 10:26:43;;;;;;;3.70;1.23;;;17.50;56.10;;;;;;5114533;27;20187;-70
2022/04/15 10:29:11;;;;;;;2.13;1.70;;;17.50;56.00;;;;;;5137158;27;20163;-71
2022/04/15 10:31:42;;;;;;;5.55;1.58;;;17.50;55.90;;;;;;5153566;27;20187;-68
2022/04/15 10:34:21;;;;;;;1.60;1.48;;;17.40;55.80;;;;;;5152908;27;20211;-71
2022/04/15 10:36:51;;;;;;;1.70;1.40;;;17.40;55.90;;;;;;5153162;27;20172;-69
2022/04/15 10:39:23;;;;;;;5.07;2.05;;;17.50;55.90;;;;;;5135586;27;20195;-69
2022/04/15 10:41:52;;;;;;;2.00;1.30;;;17.40;55.80;;;;;;5131720;27;20211;-71
2022/04/15 10:44:44;;;;;;;1.63;1.50;;;17.50;55.90;;;;;;5132916;27;20202;-73
2022/04/15 10:47:22;;;;;;;4.00;1.60;;;17.50;55.80;;;;;;5128722;27;20176;-73
2022/04/15 10:50:06;;;;;;;3.53;1.30;;;17.50;55.90;;;;;;5132021;27;20172;-72
2022/04/15 10:52:34;;;;;;;1.73;1.55;;;17.50;55.80;;;;;;5132653;27;20211;-73
2022/04/15 10:55:06;;;;;;;6.00;2.08;;;17.50;55.80;;;;;;5138340;27;20168;-75
2022/04/15 10:57:36;;;;;;;1.77;1.10;;;17.50;55.80;;;;;;5153381;27;20197;-74
2022/04/15 11:02:51;;;;;;;1.73;1.35;;;17.60;55.80;;;;;;5136334;27;20737;-74
2022/04/15 11:05:35;;;;;;;2.10;0.98;;;17.60;55.80;;;;;;5153139;27;20176;-71
2022/04/15 11:08:05;;;;;;;2.55;1.23;;;17.60;55.90;;;;;;5153494;27;20220;-73
2022/04/15 11:10:42;;;;;;;1.40;1.30;;;17.60;55.80;;;;;;5152489;27;20179;-73
2022/04/15 11:13:40;;;;;;;4.57;1.50;;;17.60;55.90;;;;;;5152954;27;20206;-72
2022/04/15 11:16:13;;;;;;;2.65;1.40;;;17.50;56.00;;;;;;5143657;27;20179;-73
2022/04/15 11:18:55;;;;;;;2.47;1.40;;;17.60;56.00;;;;;;5153037;27;20159;-74
2022/04/15 11:21:26;;;;;;;2.63;1.27;;;17.60;56.00;;;;;;5153225;27;20175;-73
2022/04/15 11:23:53;;;;;;;1.58;1.05;;;17.60;55.90;;;;;;5152407;27;20175;-73
2022/04/15 11:26:19;;;;;;;2.28;1.20;;;17.60;55.90;;;;;;5153126;27;20626;-73
2022/04/15 11:28:46;;;;;;;2.30;1.38;;;17.60;55.90;;;;;;5152631;27;20168;-72
2022/04/15 11:31:31;;;;;;;1.10;1.00;;;17.60;56.00;;;;;;5135847;27;20262;-73
2022/04/15 11:34:20;;;;;;;2.92;1.30;;;17.60;56.00;;;;;;5136336;27;20239;-74
2022/04/15 11:36:46;;;;;;;3.08;1.25;;;17.60;56.00;;;;;;5121158;27;20172;-73
2022/04/15 11:39:13;;;;;;;3.97;1.95;;;17.60;56.10;;;;;;5135547;27;20180;-70
2022/04/15 11:41:49;;;;;;;3.53;1.42;;;17.60;56.10;;;;;;5136113;27;20168;-69
2022/04/15 11:44:15;;;;;;;4.28;1.70;;;17.60;56.10;;;;;;5135451;27;20172;-71
2022/04/15 11:46:42;;;;;;;6.50;1.40;;;17.70;56.10;;;;;;5135742;27;20619;-70
2022/04/15 11:49:18;;;;;;;2.95;1.52;;;17.70;56.10;;;;;;5136003;27;20561;-69
2022/04/15 11:51:47;;;;;;;2.20;1.35;;;17.90;56.00;;;;;;5135130;27;20279;-69
2022/04/15 11:54:12;;;;;;;4.45;1.70;;;17.90;56.00;;;;;;5136178;27;20211;-69
2022/04/15 11:56:38;;;;;;;3.55;1.17;;;18.10;56.10;;;;;;5135194;27;20169;-70
2022/04/15 11:59:04;;;;;;;3.67;1.30;;;18.20;55.90;;;;;;5135310;27;20193;-68
2022/04/15 12:01:31;;;;;;;4.07;1.30;;;18.40;55.40;;;;;;5117687;27;20229;-74
2022/04/15 12:03:57;;;;;;;2.33;1.23;;;18.60;55.10;;;;;;5135680;27;20188;-69
2022/04/15 12:06:23;;;;;;;7.35;1.10;;;18.90;54.60;;;;;;5135223;27;20251;-70
2022/04/15 12:08:51;;;;;;;5.00;1.25;;;19.10;54.20;;;;;;5135442;27;20349;-69
2022/04/15 12:11:24;;;;;;;2.45;1.35;;;19.40;53.60;;;;;;5135449;27;20204;-72
2022/04/15 12:14:16;;;;;;;5.13;1.90;;;19.50;53.20;;;;;;5134739;27;20215;-70
2022/04/15 12:16:42;;;;;;;4.85;1.42;;;19.70;52.90;;;;;;5113632;27;20395;-71
2022/04/15 12:19:08;;;;;;;3.17;1.63;;;19.70;52.80;;;;;;5134813;27;20183;-70
2022/04/15 12:21:34;;;;;;;4.75;1.38;;;19.70;52.60;;;;;;5117189;27;20243;-72
2022/04/15 12:24:06;;;;;;;4.55;1.60;;;19.80;52.60;;;;;;5135173;27;20196;-73
2022/04/15 12:26:51;;;;;;;3.67;1.65;;;19.70;52.70;;;;;;5134856;27;20180;-73
2022/04/15 12:32:23;;;;;;;7.65;2.25;;;19.60;53.00;;;;;;5156051;27;20601;-71
2022/04/15 12:34:55;;;;;;;3.40;1.40;;;19.50;53.20;;;;;;5155333;27;20262;-71
2022/04/15 12:37:47;;;;;;;2.92;1.30;;;19.50;53.30;;;;;;5156001;27;20167;-71
2022/04/15 12:40:19;;;;;;;4.00;1.27;;;19.50;53.40;;;;;;5154754;27;20179;-74
2022/04/15 12:42:45;;;;;;;2.78;1.38;;;19.40;53.50;;;;;;5155424;27;20259;-71
2022/04/15 12:45:16;;;;;;;5.85;1.80;;;19.40;53.70;;;;;;5155939;27;20532;-72
2022/04/15 12:47:42;;;;;;;3.17;1.50;;;19.40;53.70;;;;;;5155068;27;20499;-72
2022/04/15 12:50:30;;;;;;;2.58;1.38;;;19.30;53.70;;;;;;5155914;27;20504;-73
2022/04/15 12:52:55;;;;;;;1.67;1.02;;;19.30;53.80;;;;;;5155301;27;20318;-70
2022/04/15 12:55:31;;;;;;;4.50;1.40;;;19.20;53.90;;;;;;5155373;27;20642;-72